createdAt,value
2023-02-11T00:04:40.453Z,94195.16
2023-02-11T00:09:42.186Z,94188.91
2023-02-11T00:14:43.912Z,94189.78
2023-02-11T00:19:49.811Z,94180.41
2023-02-11T00:24:51.586Z,94179.81
2023-02-11T00:29:53.434Z,94191.53
2023-02-11T00:34:55.476Z,94186.81
2023-02-11T00:39:57.207Z,94165.59
2023-02-11T00:44:58.922Z,94179.00
2023-02-11T00:50:00.996Z,94161.91
2023-02-11T00:55:03.078Z,94167.03
2023-02-11T01:00:06.195Z,94170.47
2023-02-11T01:05:08.458Z,94132.38
2023-02-11T01:10:10.804Z,94154.03
2023-02-11T01:15:17.003Z,94151.59
2023-02-11T01:20:22.837Z,94129.22
2023-02-11T01:25:25.112Z,94129.69
2023-02-11T01:30:26.866Z,94128.44
2023-02-11T01:35:28.550Z,94130.81
2023-02-11T01:40:31.248Z,94130.25
2023-02-11T01:45:46.177Z,94125.88
2023-02-11T01:50:53.066Z,94119.59
2023-02-11T01:56:15.419Z,94099.59
2023-02-11T02:01:21.678Z,94117.53
2023-02-11T02:06:30.425Z,94120.56
2023-02-11T02:11:32.566Z,94100.50
2023-02-11T02:16:36.886Z,94107.50
2023-02-11T02:22:00.289Z,94098.72
2023-02-11T02:27:53.122Z,94106.19
2023-02-11T02:33:24.949Z,94102.19
2023-02-11T02:38:48.870Z,94105.34
2023-02-11T02:43:51.811Z,94098.31
2023-02-11T02:48:55.054Z,94108.41
2023-02-11T02:54:21.551Z,94112.88
2023-02-11T03:00:08.174Z,94114.97
2023-02-11T03:05:28.749Z,94104.78
2023-02-11T03:10:36.301Z,94102.75
2023-02-11T03:15:43.144Z,94097.88
2023-02-11T03:20:49.566Z,94094.84
2023-02-11T03:26:09.039Z,94076.00
2023-02-11T03:31:15.138Z,94072.31
2023-02-11T03:36:27.460Z,94069.78
2023-02-11T03:41:31.541Z,94070.72
2023-02-11T03:46:38.050Z,94069.31
2023-02-11T03:51:40.837Z,94059.94
2023-02-11T03:56:53.043Z,94069.09
2023-02-11T04:01:55.030Z,94056.16
2023-02-11T04:06:57.656Z,94053.81
2023-02-11T04:11:59.469Z,94049.88
2023-02-11T04:17:01.369Z,94039.16
2023-02-11T04:22:03.498Z,94045.84
2023-02-11T04:27:05.231Z,94059.25
2023-02-11T04:32:07.477Z,94051.56
2023-02-11T04:37:09.488Z,94040.72
2023-02-11T04:42:11.338Z,94043.22
2023-02-11T04:47:15.289Z,94036.50
2023-02-11T04:52:17.070Z,94033.44
2023-02-11T04:57:18.830Z,94026.56
2023-02-11T05:02:20.622Z,94022.84
2023-02-11T05:07:22.498Z,94019.16
2023-02-11T05:12:24.254Z,94016.13
2023-02-11T05:17:26.096Z,94019.31
2023-02-11T05:22:27.876Z,94018.97
2023-02-11T05:27:29.640Z,94023.97
2023-02-11T05:32:31.637Z,94024.22
2023-02-11T05:37:33.561Z,94037.09
2023-02-11T05:42:35.435Z,94017.38
2023-02-11T05:47:37.264Z,94030.22
2023-02-11T05:52:39.025Z,94005.06
2023-02-11T05:57:41.135Z,93987.69
2023-02-11T06:02:42.956Z,94007.84
2023-02-11T06:07:45.021Z,93988.91
2023-02-11T06:12:46.946Z,94008.31
2023-02-11T06:17:48.758Z,93997.81
2023-02-11T06:22:50.604Z,94005.22
2023-02-11T06:27:52.409Z,94005.13
2023-02-11T06:32:54.930Z,94013.78
2023-02-11T06:37:56.726Z,94021.25
2023-02-11T06:42:58.539Z,94012.63
2023-02-11T06:48:00.322Z,94010.13
2023-02-11T06:53:02.301Z,93991.25
2023-02-11T06:58:04.075Z,94011.84
2023-02-11T07:03:05.833Z,94028.34
2023-02-11T07:08:07.615Z,94049.47
2023-02-11T07:13:09.381Z,94046.78
2023-02-11T07:18:13.053Z,94064.44
2023-02-11T07:23:16.262Z,94065.19
2023-02-11T07:28:18.054Z,94070.91
2023-02-11T07:33:20.078Z,94059.38
2023-02-11T07:38:21.894Z,94076.19
2023-02-11T07:43:23.659Z,94075.94
2023-02-11T07:48:25.468Z,94078.44
2023-02-11T07:53:27.219Z,94088.53
2023-02-11T07:58:29.008Z,94105.16
2023-02-11T08:03:32.278Z,94071.72
2023-02-11T08:08:34.355Z,94070.88
2023-02-11T08:13:36.855Z,94108.19
2023-02-11T08:18:38.560Z,94106.41
2023-02-11T08:23:42.967Z,94108.19
2023-02-11T08:28:46.244Z,94101.00
2023-02-11T08:33:48.389Z,94106.81
2023-02-11T08:38:50.440Z,94092.97
2023-02-11T08:43:52.375Z,94090.50
2023-02-11T08:48:54.234Z,94105.72
2023-02-11T08:53:56.567Z,94108.34
2023-02-11T08:58:58.451Z,94026.41
2023-02-11T09:04:01.121Z,94103.44
2023-02-11T09:09:02.987Z,94102.50
2023-02-11T09:14:05.199Z,94115.50
2023-02-11T09:19:07.064Z,94123.84
2023-02-11T09:24:08.916Z,94116.28
2023-02-11T09:29:10.936Z,94129.63
2023-02-11T09:34:13.158Z,94091.56
2023-02-11T09:39:17.899Z,94132.84
2023-02-11T09:44:26.770Z,94132.53
2023-02-11T09:49:40.888Z,94130.13
2023-02-11T09:55:01.871Z,94138.75
2023-02-11T10:00:27.142Z,94144.75
2023-02-11T10:05:31.787Z,94157.66
2023-02-11T10:10:59.433Z,94173.94
2023-02-11T10:16:19.884Z,94171.44
2023-02-11T10:21:50.517Z,94181.00
2023-02-11T10:26:52.572Z,94157.63
2023-02-11T10:31:57.861Z,94166.50
2023-02-11T10:37:00.388Z,94166.75
2023-02-11T10:42:08.695Z,94147.56
2023-02-11T10:47:21.176Z,94156.94
2023-02-11T10:52:30.483Z,94168.97
2023-02-11T10:57:44.680Z,94170.53
2023-02-11T11:02:54.432Z,94144.47
2023-02-11T11:07:59.560Z,94165.31
2023-02-11T11:13:01.516Z,94159.13
2023-02-11T11:18:21.281Z,94161.91
2023-02-11T11:23:25.058Z,94154.72
2023-02-11T11:28:29.916Z,94165.16
2023-02-11T11:33:35.644Z,94142.38
2023-02-11T11:38:52.335Z,94140.06
2023-02-11T11:43:55.480Z,94124.34
2023-02-11T11:49:04.777Z,94140.75
2023-02-11T11:54:12.097Z,94103.97
2023-02-11T11:59:16.487Z,94110.16
2023-02-11T12:04:59.515Z,94132.16
2023-02-11T12:10:31.283Z,94121.19
2023-02-11T12:15:58.985Z,94111.63
2023-02-11T12:21:11.743Z,94105.94
2023-02-11T12:26:24.222Z,94093.06
2023-02-11T12:31:26.119Z,94089.00
2023-02-11T12:36:56.024Z,94076.88
2023-02-11T12:42:39.190Z,94061.00
2023-02-11T12:47:53.137Z,94054.03
2023-02-11T12:53:19.400Z,94048.16
2023-02-11T12:58:32.637Z,94034.06
2023-02-11T13:04:09.303Z,93990.38
2023-02-11T13:09:18.995Z,94009.50
2023-02-11T13:14:23.936Z,93999.88
2023-02-11T13:19:34.835Z,93999.56
2023-02-11T13:24:51.589Z,93998.66
2023-02-11T13:30:13.898Z,93987.75
2023-02-11T13:35:33.473Z,93991.03
2023-02-11T13:40:37.986Z,93969.56
2023-02-11T13:45:44.998Z,93987.75
2023-02-11T13:50:50.079Z,93969.06
2023-02-11T13:56:07.735Z,93981.41
2023-02-11T14:01:09.744Z,93916.28
2023-02-11T14:06:31.805Z,93989.63
2023-02-11T14:11:33.574Z,93973.91
2023-02-11T14:16:38.257Z,93951.78
2023-02-11T14:21:44.095Z,93972.44
2023-02-11T14:27:04.314Z,93975.16
2023-02-11T14:32:17.815Z,93966.44
2023-02-11T14:37:27.196Z,93978.78
2023-02-11T14:42:31.251Z,93978.22
2023-02-11T14:47:43.684Z,93947.88
2023-02-11T14:52:46.268Z,93962.75
2023-02-11T14:57:50.900Z,93953.69
2023-02-11T15:02:53.627Z,93975.94
2023-02-11T15:07:59.638Z,93986.28
2023-02-11T15:13:03.557Z,93973.88
2023-02-11T15:18:05.754Z,93945.19
2023-02-11T15:23:16.954Z,93971.94
2023-02-11T15:28:29.002Z,93986.63
2023-02-11T15:33:32.324Z,93959.19
2023-02-11T15:38:34.241Z,93980.88
2023-02-11T15:43:54.122Z,93981.97
2023-02-11T15:48:56.160Z,93988.22
2023-02-11T15:54:08.105Z,93980.22
2023-02-11T15:59:25.707Z,93980.63
2023-02-11T16:04:28.185Z,93957.78
2023-02-11T16:09:36.555Z,93994.66
2023-02-11T16:14:41.179Z,93989.13
2023-02-11T16:19:46.144Z,93992.41
2023-02-11T16:24:51.212Z,93995.69
2023-02-11T16:29:53.367Z,93994.53
2023-02-11T16:34:58.016Z,94002.09
2023-02-11T16:39:59.875Z,93995.19
2023-02-11T16:45:02.090Z,93976.16
2023-02-11T16:50:04.565Z,93982.69
2023-02-11T16:55:06.677Z,94007.88
2023-02-11T17:00:09.106Z,94005.78
2023-02-11T17:05:20.433Z,94005.22
2023-02-11T17:10:23.653Z,94007.81
2023-02-11T17:15:25.522Z,93993.53
2023-02-11T17:20:27.387Z,93960.72
2023-02-11T17:25:29.287Z,93981.88
2023-02-11T17:30:31.224Z,93960.72
2023-02-11T17:35:33.024Z,93981.06
2023-02-11T17:40:34.887Z,94017.84
2023-02-11T17:45:41.595Z,94006.00
2023-02-11T17:50:43.664Z,94007.00
2023-02-11T17:55:45.553Z,94023.50
2023-02-11T18:00:47.410Z,94023.13
2023-02-11T18:05:49.609Z,94016.38
2023-02-11T18:10:51.690Z,93950.09
2023-02-11T18:15:53.723Z,94037.00
2023-02-11T18:21:00.178Z,94039.81
2023-02-11T18:26:02.978Z,94040.88
2023-02-11T18:31:05.924Z,94028.31
2023-02-11T18:36:10.259Z,94040.69
2023-02-11T18:41:13.445Z,94044.66
2023-02-11T18:46:16.410Z,94054.28
2023-02-11T18:51:18.814Z,94041.00
2023-02-11T18:56:23.054Z,94045.75
2023-02-11T19:01:29.304Z,94057.75
2023-02-11T19:06:34.526Z,94031.81
2023-02-11T19:11:47.591Z,94057.28
2023-02-11T19:16:51.550Z,94041.41
2023-02-11T19:21:54.777Z,94074.00
2023-02-11T19:26:58.947Z,94065.47
2023-02-11T19:32:05.858Z,94063.16
2023-02-11T19:37:12.649Z,94070.63
2023-02-11T19:42:15.160Z,94062.84
2023-02-11T19:47:17.846Z,94056.88
2023-02-11T19:52:19.899Z,94058.47
2023-02-11T19:57:21.835Z,94072.75
2023-02-11T20:02:23.777Z,94057.38
2023-02-11T20:07:25.642Z,94028.91
2023-02-11T20:12:27.573Z,94057.06
2023-02-11T20:17:29.366Z,94045.91
2023-02-11T20:22:32.412Z,94050.00
2023-02-11T20:27:34.212Z,94057.53
2023-02-11T20:32:38.418Z,94023.09
2023-02-11T20:37:43.786Z,94039.47
2023-02-11T20:42:45.987Z,94036.53
2023-02-11T20:47:47.869Z,94025.78
2023-02-11T20:52:49.828Z,94016.72
2023-02-11T20:57:51.626Z,94034.22
2023-02-11T21:02:53.752Z,94030.72
2023-02-11T21:07:55.638Z,94031.66
2023-02-11T21:12:57.627Z,94027.19
2023-02-11T21:17:59.406Z,94015.22
2023-02-11T21:23:01.135Z,94027.09
2023-02-11T21:28:03.052Z,94023.06
2023-02-11T21:33:05.960Z,94021.28
2023-02-11T21:38:07.819Z,94022.47
2023-02-11T21:43:09.559Z,94014.72
2023-02-11T21:48:12.224Z,94021.84
2023-02-11T21:53:14.948Z,94022.56
2023-02-11T21:58:16.943Z,94023.41
2023-02-11T22:03:18.742Z,94047.50
2023-02-11T22:08:20.511Z,94037.47
2023-02-11T22:13:22.304Z,94035.00
2023-02-11T22:18:24.100Z,94022.63
2023-02-11T22:23:25.876Z,94037.00
2023-02-11T22:28:27.767Z,94031.34
2023-02-11T22:33:29.488Z,94021.94
2023-02-11T22:38:32.766Z,94029.97
2023-02-11T22:43:34.716Z,93999.50
2023-02-11T22:48:36.608Z,94019.25
2023-02-11T22:53:38.623Z,94034.66
2023-02-11T22:58:40.518Z,94003.88
2023-02-11T23:03:42.712Z,94046.34
2023-02-11T23:08:44.787Z,94040.41
2023-02-11T23:13:48.167Z,94040.56
2023-02-11T23:18:50.939Z,94039.69
2023-02-11T23:23:58.222Z,94047.50
2023-02-11T23:29:00.283Z,94041.31
2023-02-11T23:34:02.074Z,94034.16
2023-02-11T23:39:04.759Z,94046.50
2023-02-11T23:44:06.597Z,94027.00
2023-02-11T23:49:08.434Z,94013.84
2023-02-11T23:54:14.625Z,94040.16
2023-02-11T23:59:17.071Z,94033.66
